Observations for Trim Patrick St
| Time | AQI | Temp °C | Hum % | Pres Pa | CO μg/m³ | H₂S μg/m³ | NO μg/m³ | NO₂ μg/m³ | O₃ μg/m³ | SO₂ μg/m³ | PM1 μg/m³ | PM2.5 μg/m³ | PM10 μg/m³ |
|---|---|---|---|---|---|---|---|---|---|---|---|---|---|
| Thursday 30 July 2026 | |||||||||||||
| 16:06 | 3 | 26.5 | 33 | 68,991 | 0 | 5.02 | 1.98 | 13.43 | 95.37 | 9.92 | 2.86 | 8.31 | 9.14 |
| 16:05 | 3 | 26.4 | 31 | 68,995 | 0 | 7.51 | 1.62 | 14.66 | 100.78 | 10.68 | 3.71 | 10.04 | 11.04 |
| 16:04 | 3 | 26.5 | 31 | 69,025 | 0 | 10.32 | 1.42 | 14.34 | 109.7 | 10.72 | 4.57 | 10.8 | 11.88 |
| 16:03 | 3 | 26.5 | 31 | 69,002 | 0 | 9.28 | 1.52 | 15.69 | 101.32 | 10.7 | 4.57 | 11.63 | 12.79 |
| 16:02 | 3 | 26.5 | 30 | 68,981 | 0 | 4.65 | 1.65 | 13.19 | 103.59 | 10.12 | 6.29 | 13.29 | 14.62 |
| 16:01 | 3 | 26.5 | 31 | 68,947 | 0 | 4.25 | 1.66 | 13.23 | 121.19 | 10.92 | 4.57 | 13.25 | 14.58 |
| 16:00 | 3 | 26.5 | 31 | 68,963 | 0 | 0 | 1.68 | 9.56 | 81.54 | 9.96 | 4.57 | 11.63 | 12.79 |
| 15:59 | 2 | 26.5 | 31 | 68,961 | 0 | 6.83 | 1.91 | 12.28 | 91.27 | 10.77 | 2.86 | 8.44 | 9.29 |
| 15:58 | 2 | 26.6 | 30 | 68,955 | 0 | 9.44 | 1.69 | 21.04 | 104.02 | 11.83 | 2 | 7.64 | 8.41 |
| 15:53 | 2 | 26.8 | 30 | 68,961 | 0 | 1.03 | 2.5 | 13.08 | 91.69 | 9.56 | 2.86 | 9.29 | 10.21 |
| 15:50 | 2 | 27.1 | 29 | 69,004 | 0 | 0 | 2.5 | 12.41 | 103.1 | 10.5 | 4.57 | 11.79 | 12.97 |
| 15:49 | 2 | 27.2 | 29 | 68,977 | 0 | 0 | 2.49 | 13 | 100.11 | 10.18 | 2 | 8.57 | 9.43 |
| 15:46 | 2 | 27.3 | 29 | 68,995 | 0 | 0 | 2.38 | 13.62 | 118.91 | 10.78 | 2 | 10.15 | 11.17 |
| 15:45 | 2 | 27.2 | 29 | 68,995 | 0 | 0 | 2.48 | 9.17 | 72.85 | 9.64 | 2 | 7.76 | 8.54 |
| 15:44 | 2 | 27.2 | 30 | 68,999 | 0 | 0 | 2.34 | 7.46 | 76.54 | 10.6 | 2 | 7.69 | 8.46 |
| 15:43 | 2 | 27.2 | 30 | 69,031 | 0 | 0 | 2.39 | 13.04 | 85.11 | 10.87 | 2 | 8.51 | 9.36 |
| 15:42 | 2 | 27.2 | 29 | 69,041 | 0 | 0 | 2.49 | 11.65 | 79.43 | 10.12 | 2.86 | 9.38 | 10.32 |
| 15:41 | 2 | 27.2 | 29 | 69,055 | 0 | 0 | 2.31 | 12.28 | 117.92 | 9.79 | 2 | 8.55 | 9.41 |
| 15:40 | 2 | 27.2 | 29 | 69,071 | 0 | 0 | 2.42 | 12.59 | 102.19 | 9.75 | 2.86 | 9.38 | 10.32 |
| 15:39 | 2 | 27.2 | 29 | 69,061 | 0 | 0 | 2.42 | 10.67 | 75.86 | 9.87 | 2 | 8.57 | 9.42 |